createdAt,value
2023-03-29T00:00:47.500Z,0.0000
2023-03-29T00:01:48.326Z,0.0000
2023-03-29T00:02:49.287Z,0.0000
2023-03-29T00:03:50.249Z,0.0000
2023-03-29T00:04:51.160Z,0.0000
2023-03-29T00:05:51.920Z,0.0000
2023-03-29T00:06:52.734Z,0.0000
2023-03-29T00:07:53.523Z,0.0000
2023-03-29T00:08:54.346Z,0.0000
2023-03-29T00:09:55.110Z,0.0000
2023-03-29T00:10:55.948Z,0.0000
2023-03-29T00:11:56.756Z,0.0000
2023-03-29T00:12:57.605Z,0.0000
2023-03-29T00:13:58.418Z,0.0000
2023-03-29T00:14:59.200Z,0.0000
2023-03-29T00:15:59.972Z,0.0000
2023-03-29T00:17:01.105Z,0.0000
2023-03-29T00:18:02.030Z,0.0000
2023-03-29T00:19:02.916Z,0.0000
2023-03-29T00:20:03.646Z,0.0000
2023-03-29T00:21:04.647Z,0.0000
2023-03-29T00:22:05.562Z,0.0000
2023-03-29T00:23:06.367Z,0.0000
2023-03-29T00:24:07.178Z,0.0000
2023-03-29T00:25:07.976Z,0.0000
2023-03-29T00:26:08.802Z,0.0000
2023-03-29T00:27:09.623Z,0.0000
2023-03-29T00:28:10.420Z,0.0000
2023-03-29T00:29:11.226Z,0.0000
2023-03-29T00:30:12.051Z,0.0000
2023-03-29T00:31:12.865Z,0.0000
2023-03-29T00:32:13.801Z,0.0000
2023-03-29T00:33:14.681Z,0.0000
2023-03-29T00:34:15.492Z,0.0000
2023-03-29T00:35:16.319Z,0.0000
2023-03-29T00:36:17.148Z,0.0000
2023-03-29T00:37:18.007Z,0.0000
2023-03-29T00:38:18.775Z,0.0000
2023-03-29T00:39:19.605Z,0.0000
2023-03-29T00:40:20.405Z,0.0000
2023-03-29T00:41:21.242Z,0.0000
2023-03-29T00:42:22.061Z,0.0000
2023-03-29T00:43:22.878Z,0.0000
2023-03-29T00:44:23.725Z,0.0000
2023-03-29T00:45:24.507Z,0.0000
2023-03-29T00:46:25.376Z,0.0000
2023-03-29T00:47:26.404Z,0.0000
2023-03-29T00:48:27.234Z,0.0000
2023-03-29T00:49:27.992Z,0.0000
2023-03-29T00:50:28.827Z,0.0000
2023-03-29T00:51:29.545Z,0.0000
2023-03-29T00:52:30.314Z,0.0000
2023-03-29T00:53:31.127Z,0.0000
2023-03-29T00:54:31.932Z,0.0000
2023-03-29T00:55:32.718Z,0.0000
2023-03-29T00:56:33.515Z,0.0000
2023-03-29T00:57:34.304Z,0.0000
2023-03-29T00:58:35.118Z,0.0000
2023-03-29T00:59:35.949Z,0.0000
2023-03-29T01:00:36.751Z,0.0000
2023-03-29T01:01:37.534Z,0.0000
2023-03-29T01:02:38.421Z,0.0000
2023-03-29T01:03:39.540Z,0.0000
2023-03-29T01:04:40.556Z,0.0000
2023-03-29T01:05:41.383Z,0.0000
2023-03-29T01:06:42.182Z,0.0000
2023-03-29T01:07:43.090Z,0.0000
2023-03-29T01:08:43.860Z,0.0000
2023-03-29T01:09:44.678Z,0.0000
2023-03-29T01:10:45.362Z,0.0000
2023-03-29T01:11:46.190Z,0.0000
2023-03-29T01:12:46.999Z,0.0000
2023-03-29T01:13:47.801Z,0.0000
2023-03-29T01:14:48.806Z,0.0000
2023-03-29T01:15:49.640Z,0.0000
2023-03-29T01:16:50.479Z,0.0000
2023-03-29T01:17:51.318Z,0.0000
2023-03-29T01:18:52.102Z,0.0000
2023-03-29T01:19:52.904Z,0.0000
2023-03-29T01:20:53.674Z,0.0000
2023-03-29T01:21:54.484Z,0.0000
2023-03-29T01:22:55.344Z,0.0000
2023-03-29T01:23:56.184Z,0.0000
2023-03-29T01:24:56.963Z,0.0000
2023-03-29T01:25:57.812Z,0.0000
2023-03-29T01:26:58.636Z,0.0000
2023-03-29T01:27:59.451Z,0.0000
2023-03-29T01:29:00.286Z,0.0000
2023-03-29T01:30:01.143Z,0.0000
2023-03-29T01:31:02.163Z,0.0000
2023-03-29T01:32:03.604Z,0.0000
2023-03-29T01:33:04.863Z,0.0000
2023-03-29T01:34:05.671Z,0.0000
2023-03-29T01:35:06.486Z,0.0000
2023-03-29T01:36:07.223Z,0.0000
2023-03-29T01:37:08.037Z,0.0000
2023-03-29T01:38:08.784Z,0.0000
2023-03-29T01:39:09.564Z,0.0000
2023-03-29T01:40:10.390Z,0.0000
2023-03-29T01:41:11.200Z,0.0000
2023-03-29T01:42:12.033Z,0.0000
2023-03-29T01:43:13.061Z,0.0000
2023-03-29T01:44:14.190Z,0.0000
2023-03-29T01:45:15.309Z,0.0000
2023-03-29T01:46:16.240Z,0.0000
2023-03-29T01:47:17.140Z,0.0000
2023-03-29T01:48:17.972Z,0.0000
2023-03-29T01:49:18.759Z,0.0000
2023-03-29T01:50:19.610Z,0.0000
2023-03-29T01:51:20.421Z,0.0000
2023-03-29T01:52:21.271Z,0.0000
2023-03-29T01:53:22.087Z,0.0000
2023-03-29T01:54:22.954Z,0.0000
2023-03-29T01:55:23.750Z,0.0000
2023-03-29T01:56:24.552Z,0.0000
2023-03-29T01:57:25.498Z,0.0000
2023-03-29T01:58:26.343Z,0.0000
2023-03-29T01:59:27.049Z,0.0000
2023-03-29T02:00:27.873Z,0.0000
2023-03-29T02:01:28.834Z,0.0000
2023-03-29T02:02:29.811Z,0.0000
2023-03-29T02:03:30.755Z,0.0000
2023-03-29T02:04:32.186Z,0.0000
2023-03-29T02:05:32.997Z,0.0000
2023-03-29T02:06:33.800Z,0.0000
2023-03-29T02:07:34.608Z,0.0000
2023-03-29T02:08:35.468Z,0.0000
2023-03-29T02:09:36.269Z,0.0000
2023-03-29T02:10:37.075Z,0.0000
2023-03-29T02:11:37.876Z,0.0000
2023-03-29T02:12:38.708Z,0.0000
2023-03-29T02:13:39.528Z,0.0000
2023-03-29T02:14:40.498Z,0.0000
2023-03-29T02:15:41.340Z,0.0000
2023-03-29T02:16:42.189Z,0.0000
2023-03-29T02:17:43.046Z,0.0000
2023-03-29T02:18:44.010Z,0.0000
2023-03-29T02:19:44.769Z,0.0000
2023-03-29T02:20:45.490Z,0.0000
2023-03-29T02:21:46.326Z,0.0000
2023-03-29T02:22:47.121Z,0.0000
2023-03-29T02:23:47.966Z,0.0000
2023-03-29T02:24:48.785Z,0.0000
2023-03-29T02:25:49.633Z,0.0000
2023-03-29T02:26:50.606Z,0.0000
2023-03-29T02:27:51.410Z,0.0000
2023-03-29T02:28:52.230Z,0.0000
2023-03-29T02:29:53.059Z,0.0000
2023-03-29T02:30:53.903Z,0.0000
2023-03-29T02:31:54.693Z,0.0000
2023-03-29T02:32:55.596Z,0.0000
2023-03-29T02:33:56.478Z,0.0000
2023-03-29T02:34:57.316Z,0.0000
2023-03-29T02:35:58.068Z,0.0000
2023-03-29T02:36:58.826Z,0.0000
2023-03-29T02:37:59.533Z,0.0000
2023-03-29T02:39:00.355Z,0.0000
2023-03-29T02:40:01.206Z,0.0000
2023-03-29T02:41:02.213Z,0.0000
2023-03-29T02:42:03.607Z,0.0000
2023-03-29T02:43:04.450Z,0.0000
2023-03-29T02:44:05.249Z,0.0000
2023-03-29T02:45:06.079Z,0.0000
2023-03-29T02:46:06.940Z,0.0000
2023-03-29T02:47:07.801Z,0.0000
2023-03-29T02:48:08.615Z,0.0000
2023-03-29T02:49:09.555Z,0.0000
2023-03-29T02:50:10.355Z,0.0000
2023-03-29T02:51:11.208Z,0.0000
2023-03-29T02:52:12.042Z,0.0000
2023-03-29T02:53:12.874Z,0.0000
2023-03-29T02:54:13.697Z,0.0000
2023-03-29T02:55:14.470Z,0.0000
2023-03-29T02:56:15.280Z,0.0000
2023-03-29T02:57:16.254Z,0.0000
2023-03-29T02:58:17.134Z,0.0000
2023-03-29T02:59:17.951Z,0.0000
2023-03-29T03:00:18.785Z,0.0000
2023-03-29T03:01:19.632Z,0.0000
2023-03-29T03:02:20.522Z,0.0000
2023-03-29T03:03:21.470Z,0.0000
2023-03-29T03:04:22.382Z,0.0000
2023-03-29T03:05:23.188Z,0.0000
2023-03-29T03:06:24.052Z,0.0000
2023-03-29T03:07:25.950Z,0.0000
2023-03-29T03:08:26.770Z,0.0000
2023-03-29T03:09:27.566Z,0.0000
2023-03-29T03:10:28.465Z,0.0000
2023-03-29T03:11:29.198Z,0.0000
2023-03-29T03:12:30.053Z,0.0000
2023-03-29T03:13:30.774Z,0.0000
2023-03-29T03:14:31.570Z,0.0000
2023-03-29T03:15:32.274Z,0.0000
2023-03-29T03:16:33.118Z,0.0000
2023-03-29T03:17:33.885Z,0.0000
2023-03-29T03:18:34.702Z,0.0000
2023-03-29T03:19:35.519Z,0.0000
2023-03-29T03:20:36.373Z,0.0000
2023-03-29T03:21:37.159Z,0.0000
2023-03-29T03:22:37.959Z,0.0000
2023-03-29T03:23:38.768Z,0.0000
2023-03-29T03:24:39.485Z,0.0000
2023-03-29T03:25:40.297Z,0.0000
2023-03-29T03:26:41.120Z,0.0000
2023-03-29T03:27:41.951Z,0.0000
2023-03-29T03:28:42.749Z,0.0000
2023-03-29T03:29:43.587Z,0.0000
2023-03-29T03:30:44.613Z,0.0000
2023-03-29T03:31:45.550Z,0.0000
2023-03-29T03:32:46.403Z,0.0000
2023-03-29T03:33:47.257Z,0.0000
2023-03-29T03:34:48.120Z,0.0000
2023-03-29T03:35:48.918Z,0.0000
2023-03-29T03:36:49.787Z,0.0000
2023-03-29T03:37:50.606Z,0.0000
2023-03-29T03:38:51.471Z,0.0000
2023-03-29T03:39:52.241Z,0.0000
2023-03-29T03:40:53.044Z,0.0000
2023-03-29T03:41:53.949Z,0.0000
2023-03-29T03:42:54.709Z,0.0000
2023-03-29T03:43:55.907Z,0.0000
2023-03-29T03:44:56.998Z,0.0000
2023-03-29T03:45:57.996Z,0.0000
2023-03-29T03:46:58.902Z,0.0000
2023-03-29T03:47:59.727Z,0.0000
2023-03-29T03:49:00.585Z,0.0000
2023-03-29T03:50:01.425Z,0.0000
2023-03-29T03:51:02.327Z,0.0000
2023-03-29T03:52:03.785Z,0.0000
2023-03-29T03:53:04.546Z,0.0000
2023-03-29T03:54:05.391Z,0.0000
2023-03-29T03:55:06.170Z,0.0000
2023-03-29T03:56:06.943Z,0.0000
2023-03-29T03:57:07.729Z,0.0000
2023-03-29T03:58:08.558Z,0.0000
2023-03-29T03:59:09.372Z,0.0000
2023-03-29T04:00:10.152Z,0.0000
2023-03-29T04:01:10.928Z,0.0000
2023-03-29T04:02:11.763Z,0.0000
2023-03-29T04:03:12.668Z,0.0000
2023-03-29T04:04:13.912Z,0.0000
2023-03-29T04:05:14.607Z,0.0000
2023-03-29T04:06:15.415Z,0.0000
2023-03-29T04:07:16.217Z,0.0000
2023-03-29T04:08:17.010Z,0.0000
2023-03-29T04:09:17.785Z,0.0000
2023-03-29T04:10:18.654Z,0.0000
2023-03-29T04:11:19.483Z,0.0000
2023-03-29T04:12:20.288Z,0.0000
2023-03-29T04:13:21.151Z,0.0000
2023-03-29T04:14:21.948Z,0.0000
2023-03-29T04:15:22.712Z,0.0000
2023-03-29T04:16:23.495Z,0.0000
2023-03-29T04:17:24.533Z,0.0000
2023-03-29T04:18:25.465Z,0.0000
2023-03-29T04:19:26.504Z,0.0000
2023-03-29T04:20:27.330Z,0.0000
2023-03-29T04:21:28.122Z,0.0000
2023-03-29T04:22:28.903Z,0.0000
2023-03-29T04:23:29.723Z,0.0000
2023-03-29T04:24:30.590Z,0.0000
2023-03-29T04:25:31.361Z,0.0000
2023-03-29T04:26:32.156Z,0.0000
2023-03-29T04:27:32.994Z,0.0000
2023-03-29T04:28:33.812Z,0.0000
2023-03-29T04:29:34.616Z,0.0000
2023-03-29T04:30:35.407Z,0.0000
2023-03-29T04:31:36.257Z,0.0000
2023-03-29T04:32:37.062Z,0.0000
2023-03-29T04:33:37.800Z,0.0000
2023-03-29T04:34:38.553Z,0.0000
2023-03-29T04:35:39.315Z,0.0000
2023-03-29T04:36:40.106Z,0.0000
2023-03-29T04:37:40.921Z,0.0000
2023-03-29T04:38:46.106Z,0.0000
2023-03-29T04:39:44.464Z,0.0000
2023-03-29T04:40:45.272Z,0.0000
2023-03-29T04:41:45.974Z,0.0000
2023-03-29T04:42:46.793Z,0.0000
2023-03-29T04:43:47.567Z,0.0000
2023-03-29T04:44:48.418Z,2.0741
2023-03-29T04:45:49.317Z,4.0000
2023-03-29T04:46:50.240Z,1.7778
2023-03-29T04:47:51.150Z,3.8519
2023-03-29T04:48:51.988Z,5.0370
2023-03-29T04:49:52.812Z,4.5926
2023-03-29T04:50:53.672Z,6.9630
2023-03-29T04:51:54.496Z,8.2963
2023-03-29T04:52:55.319Z,9.6296
2023-03-29T04:53:56.106Z,11.8519
2023-03-29T04:54:56.909Z,14.2222
2023-03-29T04:55:57.664Z,15.1111
2023-03-29T04:56:58.560Z,16.0000
2023-03-29T04:57:59.324Z,16.0000
2023-03-29T04:59:00.184Z,15.4074
2023-03-29T05:00:00.932Z,16.0000
2023-03-29T05:01:02.074Z,16.8889
2023-03-29T05:02:03.967Z,19.4074
2023-03-29T05:03:04.851Z,23.5556
2023-03-29T05:04:05.745Z,30.9630
2023-03-29T05:05:06.507Z,40.1481
2023-03-29T05:06:07.559Z,51.4074
2023-03-29T05:07:08.545Z,55.8519
2023-03-29T05:08:09.421Z,59.2593
2023-03-29T05:09:10.139Z,67.1111
2023-03-29T05:10:10.997Z,91.8519
2023-03-29T05:11:11.888Z,124.1481
2023-03-29T05:12:12.749Z,159.2593
2023-03-29T05:13:13.530Z,193.7778
2023-03-29T05:14:14.311Z,223.1111
2023-03-29T05:15:15.183Z,247.7037
2023-03-29T05:16:16.087Z,273.6296
2023-03-29T05:17:16.916Z,296.7408
2023-03-29T05:18:17.762Z,310.0741
2023-03-29T05:19:18.972Z,320.2963
2023-03-29T05:20:20.004Z,342.6667
2023-03-29T05:21:20.709Z,370.6667
2023-03-29T05:22:21.502Z,379.7037
2023-03-29T05:23:22.452Z,366.9630
2023-03-29T05:24:23.263Z,341.4815
2023-03-29T05:25:24.043Z,323.8518
2023-03-29T05:26:24.844Z,326.0741
2023-03-29T05:27:25.667Z,356.0000
2023-03-29T05:28:26.438Z,363.1111
2023-03-29T05:29:27.222Z,380.5926
2023-03-29T05:30:28.025Z,401.0370
2023-03-29T05:31:28.891Z,414.0741
2023-03-29T05:32:29.628Z,439.7037
2023-03-29T05:33:30.414Z,472.0000
2023-03-29T05:34:31.188Z,502.6667
2023-03-29T05:35:32.039Z,563.1111
2023-03-29T05:36:32.850Z,642.8148
2023-03-29T05:37:33.640Z,739.5555
2023-03-29T05:38:34.497Z,863.7037
2023-03-29T05:39:37.557Z,934.5185
2023-03-29T05:40:36.394Z,950.1539
2023-03-29T05:41:37.186Z,932.7407
2023-03-29T05:42:38.022Z,914.2222
2023-03-29T05:43:38.814Z,879.1111
2023-03-29T05:44:39.548Z,906.6667
2023-03-29T05:45:40.691Z,1057.1852
2023-03-29T05:46:41.489Z,1186.3704
2023-03-29T05:47:42.314Z,1212.8889
2023-03-29T05:48:43.041Z,1174.9630
2023-03-29T05:49:43.849Z,1159.2593
2023-03-29T05:50:46.260Z,1220.2963
2023-03-29T05:51:45.118Z,1396.1538
2023-03-29T05:52:45.988Z,1560.4445
2023-03-29T05:53:46.765Z,1679.8518
2023-03-29T05:54:47.594Z,1765.7778
2023-03-29T05:55:49.459Z,1833.6296
2023-03-29T05:56:50.342Z,1960.1482
2023-03-29T05:57:51.129Z,2068.4443
2023-03-29T05:58:53.726Z,1964.8889
2023-03-29T05:59:53.700Z,1811.2307
2023-03-29T06:00:54.505Z,1779.5555
2023-03-29T06:01:55.345Z,1840.7407
2023-03-29T06:03:01.373Z,2025.3334
2023-03-29T06:03:56.441Z,2250.1667
2023-03-29T06:04:57.445Z,2316.5925
2023-03-29T06:05:58.316Z,2282.5186
2023-03-29T06:06:59.090Z,2255.2593
2023-03-29T06:08:00.157Z,2158.3704
2023-03-29T06:09:01.087Z,1938.8148
2023-03-29T06:10:01.871Z,1778.8148
2023-03-29T06:11:04.461Z,1793.9259
2023-03-29T06:12:04.293Z,1956.6154
2023-03-29T06:13:05.169Z,2174.9629
2023-03-29T06:14:05.980Z,2373.4814
2023-03-29T06:15:06.779Z,2444.2964
2023-03-29T06:16:07.582Z,2526.9629
2023-03-29T06:17:08.443Z,2979.1111
2023-03-29T06:18:09.284Z,3640.2964
2023-03-29T06:19:10.042Z,4366.0742
2023-03-29T06:20:10.842Z,4974.6665
2023-03-29T06:21:12.779Z,5460.0000
2023-03-29T06:22:14.923Z,5742.2222
2023-03-29T06:23:15.815Z,5794.9629
2023-03-29T06:24:16.765Z,5832.0000
2023-03-29T06:25:17.599Z,5991.8521
2023-03-29T06:26:18.489Z,6128.7407
2023-03-29T06:27:19.256Z,5872.2964
2023-03-29T06:28:20.032Z,5429.3335
2023-03-29T06:29:20.819Z,5321.1851
2023-03-29T06:30:21.585Z,5103.4072
2023-03-29T06:31:22.422Z,4493.3335
2023-03-29T06:32:23.305Z,4492.0000
2023-03-29T06:33:24.179Z,5108.8887
2023-03-29T06:34:24.991Z,5526.2222
2023-03-29T06:35:25.766Z,5692.2964
2023-03-29T06:36:26.532Z,5988.7407
2023-03-29T06:37:27.454Z,5786.2222
2023-03-29T06:38:28.371Z,5308.2964
2023-03-29T06:39:29.294Z,4870.2222
2023-03-29T06:40:30.060Z,4661.1851
2023-03-29T06:41:30.854Z,4824.0000
2023-03-29T06:42:31.705Z,4892.8887
2023-03-29T06:43:32.489Z,4799.4072
2023-03-29T06:44:33.288Z,4622.0742
2023-03-29T06:45:34.682Z,4625.6294
2023-03-29T06:46:35.495Z,4707.5557
2023-03-29T06:47:36.328Z,4339.5557
2023-03-29T06:48:37.131Z,4002.2222
2023-03-29T06:49:37.933Z,3972.5925
2023-03-29T06:50:38.721Z,4175.2593
2023-03-29T06:51:39.485Z,4448.4443
2023-03-29T06:52:40.333Z,4812.4443
2023-03-29T06:53:41.140Z,5334.8149
2023-03-29T06:54:41.877Z,6010.2222
2023-03-29T06:55:42.547Z,6494.3706
2023-03-29T06:56:43.340Z,6420.0000
2023-03-29T06:57:44.041Z,6092.5928
2023-03-29T06:58:44.885Z,5489.7778
2023-03-29T06:59:45.670Z,5002.6665
2023-03-29T07:00:46.435Z,4859.7036
2023-03-29T07:01:47.251Z,5113.7778
2023-03-29T07:02:48.055Z,5746.3706
2023-03-29T07:03:48.849Z,6712.1479
2023-03-29T07:04:49.673Z,7269.9258
2023-03-29T07:05:50.450Z,6942.9629
2023-03-29T07:06:51.249Z,6672.1479
2023-03-29T07:07:51.876Z,6533.6294
2023-03-29T07:08:52.733Z,6481.6294
2023-03-29T07:09:53.477Z,6403.7036
2023-03-29T07:10:54.258Z,6161.9258
2023-03-29T07:11:54.963Z,5848.0000
2023-03-29T07:12:56.733Z,5861.9258
2023-03-29T07:13:57.543Z,6205.3335
2023-03-29T07:14:58.306Z,6464.2964
2023-03-29T07:15:59.136Z,6946.0742
2023-03-29T07:17:00.054Z,7675.8521
2023-03-29T07:18:00.863Z,8277.6299
2023-03-29T07:19:01.680Z,8703.7041
2023-03-29T07:20:02.491Z,9472.0000
2023-03-29T07:21:03.284Z,10679.8516
2023-03-29T07:22:04.157Z,11827.4072
2023-03-29T07:23:04.980Z,12520.8887
2023-03-29T07:24:05.709Z,12745.4814
2023-03-29T07:25:06.482Z,12856.1484
2023-03-29T07:26:07.214Z,13013.7773
2023-03-29T07:27:07.982Z,12778.2227
2023-03-29T07:28:08.739Z,11661.1855
2023-03-29T07:29:09.547Z,10339.1113
2023-03-29T07:30:10.308Z,9283.4072
2023-03-29T07:31:11.191Z,8859.5557
2023-03-29T07:32:12.400Z,8795.4072
2023-03-29T07:33:13.332Z,8733.4814
2023-03-29T07:34:14.417Z,8698.0742
2023-03-29T07:35:15.204Z,8691.1113
2023-03-29T07:36:16.003Z,8680.1484
2023-03-29T07:37:16.897Z,8942.5186
2023-03-29T07:38:17.678Z,9590.2227
2023-03-29T07:39:18.510Z,9992.4443
2023-03-29T07:40:19.262Z,10017.9258
2023-03-29T07:41:20.058Z,10240.0000
2023-03-29T07:42:20.857Z,10473.1855
2023-03-29T07:43:21.624Z,10564.4443
2023-03-29T07:44:22.434Z,10630.3701
2023-03-29T07:45:26.743Z,10509.0371
2023-03-29T07:46:25.494Z,10503.6797
2023-03-29T07:47:26.254Z,10668.7412
2023-03-29T07:49:27.467Z,11700.8887
2023-03-29T07:50:28.186Z,12370.9629
2023-03-29T07:51:28.949Z,12682.5186
2023-03-29T07:52:29.814Z,12677.6299
2023-03-29T07:53:31.586Z,12590.2227
2023-03-29T07:54:32.394Z,12587.5557
2023-03-29T07:55:33.165Z,12933.9258
2023-03-29T07:56:33.976Z,13349.4814
2023-03-29T07:57:34.743Z,13795.8516
2023-03-29T07:58:35.537Z,14360.7412
2023-03-29T07:59:36.292Z,15078.5186
2023-03-29T08:00:37.075Z,15672.0000
2023-03-29T08:01:37.835Z,16149.9258
2023-03-29T08:02:38.608Z,16252.2959
2023-03-29T08:03:39.359Z,16270.5186
2023-03-29T08:04:40.201Z,15723.8516
2023-03-29T08:05:41.976Z,15469.3330
2023-03-29T08:06:40.972Z,16233.8457
2023-03-29T08:07:41.695Z,16977.7773
2023-03-29T08:08:42.373Z,16580.4453
2023-03-29T08:09:43.221Z,15008.7412
2023-03-29T08:10:43.987Z,13380.4443
2023-03-29T08:11:44.718Z,12667.8516
2023-03-29T08:12:45.511Z,12209.3330
2023-03-29T08:13:46.274Z,11706.9629
2023-03-29T08:14:46.997Z,11525.9258
2023-03-29T08:15:47.799Z,11500.2959
2023-03-29T08:16:48.611Z,11222.3701
2023-03-29T08:17:49.413Z,10730.9629
2023-03-29T08:18:50.298Z,10615.1113
2023-03-29T08:19:52.219Z,11043.1113
2023-03-29T08:20:51.100Z,11905.2305
2023-03-29T08:21:51.832Z,12757.0371
2023-03-29T08:22:52.582Z,13214.0742
2023-03-29T08:23:53.240Z,12995.7041
2023-03-29T08:24:54.016Z,12069.1855
2023-03-29T08:25:54.821Z,11380.2959
2023-03-29T08:26:55.641Z,10948.1484
2023-03-29T08:27:56.598Z,11023.4072
2023-03-29T08:28:57.363Z,11830.2227
2023-03-29T08:29:58.106Z,13339.2588
2023-03-29T08:30:58.950Z,15060.2959
2023-03-29T08:31:59.727Z,16340.8887
2023-03-29T08:33:00.598Z,16981.0371
2023-03-29T08:34:01.366Z,17134.2227
2023-03-29T08:35:02.161Z,17174.8145
2023-03-29T08:36:02.969Z,15895.2588
2023-03-29T08:37:03.765Z,15283.5557
2023-03-29T08:38:04.555Z,15970.8145
2023-03-29T08:39:05.329Z,17240.2969
2023-03-29T08:40:06.123Z,19054.2227
2023-03-29T08:41:06.781Z,20612.7402
2023-03-29T08:42:07.589Z,22263.7031
2023-03-29T08:43:08.389Z,24311.7031
2023-03-29T08:44:09.171Z,25002.6660
2023-03-29T08:45:09.924Z,24468.1484
2023-03-29T08:46:10.702Z,23973.9258
2023-03-29T08:47:11.486Z,22999.7031
2023-03-29T08:48:12.273Z,22799.4082
2023-03-29T08:49:13.060Z,21835.8516
2023-03-29T08:50:13.923Z,21546.6660
2023-03-29T08:51:14.638Z,21557.3340
2023-03-29T08:52:15.396Z,21933.0371
2023-03-29T08:53:16.206Z,22392.8887
2023-03-29T08:54:16.994Z,23479.7031
2023-03-29T08:55:17.784Z,24455.1113
2023-03-29T08:56:18.561Z,24462.2227
2023-03-29T08:57:19.351Z,25496.8887
2023-03-29T08:58:20.274Z,28186.0742
2023-03-29T08:59:21.089Z,28235.8516
2023-03-29T09:00:21.827Z,27939.5547
2023-03-29T09:01:22.706Z,26345.4824
2023-03-29T09:02:23.719Z,26622.8145
2023-03-29T09:03:25.015Z,27048.2969
2023-03-29T09:04:25.948Z,27070.8145
2023-03-29T09:05:26.782Z,26398.8145
2023-03-29T09:06:27.668Z,26552.8887
2023-03-29T09:07:28.390Z,26383.4082
2023-03-29T09:08:29.136Z,26241.1855
2023-03-29T09:09:29.942Z,26210.3711
2023-03-29T09:10:30.692Z,26005.3340
2023-03-29T09:11:31.432Z,26013.6289
2023-03-29T09:12:32.087Z,25786.0742
2023-03-29T09:13:32.943Z,25806.2227
2023-03-29T09:14:33.767Z,25908.1484
2023-03-29T09:15:34.570Z,26091.8516
2023-03-29T09:16:35.463Z,26394.0742
2023-03-29T09:17:36.261Z,26477.0371
2023-03-29T09:18:37.134Z,26080.0000
2023-03-29T09:19:38.008Z,25432.8887
2023-03-29T09:20:38.777Z,24738.3711
2023-03-29T09:21:39.536Z,24053.3340
2023-03-29T09:22:40.335Z,23682.3711
2023-03-29T09:23:41.139Z,23728.5918
2023-03-29T09:24:41.927Z,23869.6289
2023-03-29T09:25:52.437Z,24145.7773
2023-03-29T09:26:44.709Z,24375.0391
2023-03-29T09:27:45.398Z,24170.6660
2023-03-29T09:28:46.130Z,23520.0000
2023-03-29T09:29:46.819Z,21963.8516
2023-03-29T09:30:47.598Z,20094.8145
2023-03-29T09:31:48.473Z,18712.8887
2023-03-29T09:32:49.283Z,17690.0742
2023-03-29T09:33:50.048Z,16342.0742
2023-03-29T09:34:50.816Z,14934.2227
2023-03-29T09:35:51.672Z,14241.4814
2023-03-29T09:36:52.554Z,14874.9629
2023-03-29T09:37:53.369Z,15094.2227
2023-03-29T09:38:54.206Z,14850.6670
2023-03-29T09:39:55.134Z,13940.0000
2023-03-29T09:40:55.950Z,13252.5928
2023-03-29T09:41:56.715Z,13959.2588
2023-03-29T09:42:57.510Z,15791.8516
2023-03-29T09:43:58.318Z,16790.0742
2023-03-29T09:44:59.082Z,16273.6299
2023-03-29T09:45:59.989Z,15322.5186
2023-03-29T09:47:00.897Z,15123.2588
2023-03-29T09:48:01.695Z,16663.2598
2023-03-29T09:49:02.458Z,18768.5918
2023-03-29T09:50:03.257Z,20708.7402
2023-03-29T09:51:04.286Z,22610.9629
2023-03-29T09:52:05.617Z,24280.8887
2023-03-29T09:53:06.446Z,24912.5918
2023-03-29T09:54:07.222Z,24916.1484
2023-03-29T09:55:08.036Z,24647.1113
2023-03-29T09:56:08.864Z,24273.7773
2023-03-29T09:57:09.735Z,25240.8887
2023-03-29T09:58:10.655Z,27900.4453
2023-03-29T09:59:11.446Z,30722.3711
2023-03-29T10:00:12.263Z,30851.5547
2023-03-29T10:01:13.078Z,29930.6660
2023-03-29T10:02:13.796Z,28419.5547
2023-03-29T10:03:14.609Z,27524.7402
2023-03-29T10:04:15.384Z,27765.3340
2023-03-29T10:05:16.160Z,29024.0000
2023-03-29T10:06:16.970Z,29544.2969
2023-03-29T10:07:17.731Z,31203.5547
2023-03-29T10:08:19.661Z,33549.0352
2023-03-29T10:09:18.689Z,37201.2305
2023-03-29T10:11:20.042Z,40289.1836
2023-03-29T10:12:20.734Z,41627.2578
2023-03-29T10:13:21.385Z,39887.4062
2023-03-29T10:15:29.668Z,37422.2227
2023-03-29T10:16:24.822Z,38227.1992
2023-03-29T10:17:25.619Z,38314.6680
2023-03-29T10:18:26.397Z,41789.6289
2023-03-29T10:19:27.087Z,35587.5547
2023-03-29T10:20:27.863Z,41059.5547
2023-03-29T10:21:28.638Z,48969.4805
2023-03-29T10:22:29.425Z,52497.7773
2023-03-29T10:23:30.185Z,46624.0000
2023-03-29T10:24:30.930Z,52854.5195
2023-03-29T10:25:31.709Z,42558.8164
2023-03-29T10:26:32.496Z,34189.0352
2023-03-29T10:27:33.248Z,33426.9648
2023-03-29T10:28:34.036Z,34929.7773
2023-03-29T10:29:34.849Z,36688.5938
2023-03-29T10:30:35.626Z,39776.0000
2023-03-29T10:31:36.461Z,40869.9258
2023-03-29T10:32:37.251Z,41088.0000
2023-03-29T10:33:37.951Z,40513.1836
2023-03-29T10:34:38.748Z,47598.2227
2023-03-29T10:35:39.583Z,50237.6289
2023-03-29T10:36:40.350Z,60490.6680
2023-03-29T10:37:41.112Z,57404.4453
2023-03-29T10:38:41.899Z,76765.6328
2023-03-29T10:39:42.665Z,57674.6680
2023-03-29T10:40:43.453Z,61703.1094
2023-03-29T10:41:44.252Z,86914.3672
2023-03-29T10:42:45.039Z,86456.8906
2023-03-29T10:43:45.838Z,47945.4805
2023-03-29T10:44:46.827Z,30193.7773
2023-03-29T10:45:47.525Z,30734.2227
2023-03-29T10:46:48.230Z,35469.0352
2023-03-29T10:47:49.087Z,38717.6289
2023-03-29T10:48:49.768Z,31665.7773
2023-03-29T10:49:51.021Z,31044.7402
2023-03-29T10:50:51.738Z,63533.0352
2023-03-29T10:51:52.473Z,78582.5156
2023-03-29T10:52:53.234Z,43736.8906
2023-03-29T10:53:54.062Z,33880.8906
2023-03-29T10:54:54.864Z,32720.5918
2023-03-29T10:55:55.655Z,32617.4824
2023-03-29T10:56:56.497Z,31408.5918
2023-03-29T10:57:57.305Z,27529.4824
2023-03-29T10:58:58.094Z,22951.1113
2023-03-29T10:59:58.878Z,19453.6289
2023-03-29T11:00:59.802Z,16278.3701
2023-03-29T11:02:01.086Z,14888.5928
2023-03-29T11:03:01.956Z,14726.8145
2023-03-29T11:04:02.848Z,15423.4072
2023-03-29T11:05:03.855Z,16494.3711
2023-03-29T11:06:04.638Z,18066.9629
2023-03-29T11:07:05.455Z,20279.7031
2023-03-29T11:08:06.227Z,23234.3711
2023-03-29T11:09:07.067Z,25468.4453
2023-03-29T11:10:07.846Z,27672.8887
2023-03-29T11:11:08.626Z,30658.3711
2023-03-29T11:12:15.607Z,35093.3320
2023-03-29T11:14:11.223Z,42281.4805
2023-03-29T11:15:11.866Z,43375.4062
2023-03-29T11:16:12.697Z,40114.9648
2023-03-29T11:17:13.485Z,39418.0742
2023-03-29T11:18:14.249Z,41097.4805
2023-03-29T11:19:15.011Z,42365.6289
2023-03-29T11:20:15.852Z,41742.2227
2023-03-29T11:21:16.616Z,41910.5195
2023-03-29T11:22:17.448Z,42928.5938
2023-03-29T11:23:18.228Z,43098.0742
2023-03-29T11:24:19.106Z,44254.8164
2023-03-29T11:25:19.864Z,38935.7031
2023-03-29T11:26:20.646Z,38688.0000
2023-03-29T11:27:21.490Z,42823.1094
2023-03-29T11:28:22.256Z,46774.5195
2023-03-29T11:29:22.986Z,53362.9648
2023-03-29T11:30:23.749Z,62910.8164
2023-03-29T11:31:24.730Z,53220.7422
2023-03-29T11:32:25.690Z,56885.3320
2023-03-29T11:33:26.453Z,53156.7422
2023-03-29T11:34:27.269Z,47158.5195
2023-03-29T11:35:28.038Z,46245.9258
2023-03-29T11:36:28.874Z,51767.7031
2023-03-29T11:37:29.616Z,64739.5547
2023-03-29T11:38:30.424Z,54671.4062
2023-03-29T11:39:31.197Z,37125.9258
2023-03-29T11:40:33.046Z,47649.1836
2023-03-29T11:41:33.963Z,63733.3320
2023-03-29T11:42:34.767Z,52540.4453
2023-03-29T11:43:35.552Z,33205.3320
2023-03-29T11:44:36.397Z,28912.5918
2023-03-29T11:45:37.213Z,28676.7402
2023-03-29T11:46:38.050Z,29185.1855
2023-03-29T11:47:38.946Z,29805.0371
2023-03-29T11:48:39.709Z,29320.2969
2023-03-29T11:49:40.495Z,29031.1113
2023-03-29T11:50:41.307Z,27697.7773
2023-03-29T11:51:42.108Z,27629.0371
2023-03-29T11:52:42.951Z,26897.7773
2023-03-29T11:53:43.616Z,26455.7031
2023-03-29T11:54:44.531Z,26933.3340
2023-03-29T11:55:45.345Z,28270.2227
2023-03-29T11:56:46.209Z,30083.5547
2023-03-29T11:57:46.973Z,31704.8887